Time;durP1;ratioP1;P1;durP2;ratioP2;P2;SDS_P1;SDS_P2;PMS_P1;PMS_P2;Temp;Humidity;BMP_temperature;BMP_pressure;BME280_temperature;BME280_humidity;BME280_pressure;Samples;Min_cycle;Max_cycle;Signal;HPM_P1;HPM_P2
2022/05/27 00:00:42;;;;;;;6.25;2.45;;;;;;;;;;6272582;28;20021;-78
2022/05/27 00:03:43;;;;;;;8.20;3.07;;;;;;;;;;6272405;28;20028;-78
2022/05/27 00:06:43;;;;;;;7.18;2.58;;;;;;;;;;6271080;28;20428;-78
2022/05/27 00:09:43;;;;;;;8.57;3.20;;;;;;;;;;6271455;28;20040;-78
2022/05/27 00:12:43;;;;;;;3.37;2.00;;;;;;;;;;6271676;28;20017;-78
2022/05/27 00:15:44;;;;;;;6.67;3.07;;;;;;;;;;6271080;28;20024;-78
2022/05/27 00:18:44;;;;;;;5.90;2.45;;;;;;;;;;6272372;28;20072;-78
2022/05/27 00:21:44;;;;;;;4.70;3.50;;;;;;;;;;6267451;28;20454;-79
2022/05/27 00:24:45;;;;;;;7.27;3.37;;;;;;;;;;6265594;28;20099;-78
2022/05/27 00:27:46;;;;;;;7.50;2.90;;;;;;;;;;6272416;28;20024;-78
2022/05/27 00:30:46;;;;;;;7.47;3.43;;;;;;;;;;6268156;28;20032;-78
2022/05/27 00:33:47;;;;;;;6.70;3.17;;;;;;;;;;6265594;28;20290;-78
2022/05/27 00:36:47;;;;;;;5.70;2.90;;;;;;;;;;6271299;28;20018;-78
2022/05/27 00:39:47;;;;;;;4.27;2.60;;;;;;;;;;6271097;28;20461;-78
2022/05/27 00:42:47;;;;;;;6.87;3.07;;;;;;;;;;6272499;28;20446;-79
2022/05/27 00:46:03;;;;;;;3.67;2.35;;;;;;;;;;6271449;28;20052;-78
2022/05/27 00:49:11;;;;;;;6.47;3.22;;;;;;;;;;6270231;28;20560;-78
2022/05/27 00:52:12;;;;;;;6.43;3.13;;;;;;;;;;6272394;28;20437;-78
2022/05/27 00:55:15;;;;;;;6.30;2.70;;;;;;;;;;6271876;28;20021;-78
2022/05/27 00:58:17;;;;;;;8.23;4.07;;;;;;;;;;6271839;28;20738;-78
2022/05/27 01:01:18;;;;;;;5.65;3.30;;;;;;;;;;6268748;28;20049;-78
2022/05/27 01:04:18;;;;;;;6.73;3.47;;;;;;;;;;6271175;28;20361;-78
2022/05/27 01:07:18;;;;;;;7.00;4.17;;;;;;;;;;6267425;28;20009;-78
2022/05/27 01:10:19;;;;;;;7.93;4.15;;;;;;;;;;6269164;28;20024;-78
2022/05/27 01:13:19;;;;;;;7.28;4.35;;;;;;;;;;6272445;28;20020;-78
2022/05/27 01:16:28;;;;;;;7.20;4.63;;;;;;;;;;6271361;28;20104;-78
2022/05/27 01:23:12;;;;;;;5.32;2.95;;;;;;;;;;6277634;28;20025;-78
2022/05/27 01:26:31;;;;;;;12.55;2.92;;;;;;;;;;6277273;28;20028;-78
2022/05/27 01:29:38;;;;;;;3.65;2.47;;;;;;;;;;6276022;28;20025;-78
2022/05/27 01:32:56;;;;;;;6.63;2.85;;;;;;;;;;6276528;28;20028;-78
2022/05/27 01:36:09;;;;;;;8.00;2.80;;;;;;;;;;6277005;28;20013;-78
2022/05/27 01:39:21;;;;;;;5.88;2.15;;;;;;;;;;6269565;28;20059;-79
2022/05/27 01:42:27;;;;;;;5.20;2.30;;;;;;;;;;6274420;28;20035;-78
2022/05/27 01:45:31;;;;;;;6.53;2.75;;;;;;;;;;6276402;28;20082;-78
2022/05/27 01:48:45;;;;;;;4.90;2.20;;;;;;;;;;6274610;28;20027;-78
2022/05/27 01:52:08;;;;;;;3.92;2.10;;;;;;;;;;6274831;28;20054;-78
2022/05/27 01:55:14;;;;;;;3.58;1.75;;;;;;;;;;6262777;28;20065;-78
2022/05/27 01:58:27;;;;;;;4.10;1.60;;;;;;;;;;6263039;28;20021;-78
2022/05/27 02:01:31;;;;;;;3.40;1.60;;;;;;;;;;6274762;28;20489;-78
2022/05/27 02:04:37;;;;;;;2.60;1.50;;;;;;;;;;6276490;28;20025;-78
2022/05/27 02:07:45;;;;;;;3.85;1.58;;;;;;;;;;6274553;28;20155;-78
2022/05/27 02:10:58;;;;;;;2.45;1.63;;;;;;;;;;6271093;28;20012;-78
2022/05/27 02:14:01;;;;;;;2.60;1.85;;;;;;;;;;6271081;28;20059;-78
2022/05/27 02:17:04;;;;;;;5.05;2.25;;;;;;;;;;6276203;28;20063;-78
2022/05/27 02:20:04;;;;;;;3.00;2.05;;;;;;;;;;6274810;28;20045;-78
2022/05/27 02:23:07;;;;;;;4.68;2.15;;;;;;;;;;6275644;28;20016;-78
2022/05/27 02:26:14;;;;;;;2.58;1.52;;;;;;;;;;6272378;28;20013;-78
2022/05/27 02:29:17;;;;;;;2.17;1.70;;;;;;;;;;6273655;28;20031;-78
2022/05/27 02:32:25;;;;;;;4.53;2.42;;;;;;;;;;6274548;28;20017;-77
2022/05/27 02:35:26;;;;;;;4.50;1.77;;;;;;;;;;6274893;28;20016;-78
2022/05/27 02:38:27;;;;;;;3.05;2.03;;;;;;;;;;6275446;28;20013;-78
2022/05/27 02:41:41;;;;;;;6.18;2.45;;;;;;;;;;6273270;28;20028;-78
2022/05/27 02:44:50;;;;;;;4.68;1.90;;;;;;;;;;6274867;28;20048;-78
2022/05/27 02:48:08;;;;;;;5.35;2.50;;;;;;;;;;6274706;28;20013;-78
2022/05/27 02:51:09;;;;;;;3.35;1.85;;;;;;;;;;6271466;28;20021;-78
2022/05/27 02:54:16;;;;;;;5.63;2.37;;;;;;;;;;6272999;28;20039;-78
2022/05/27 02:57:23;;;;;;;5.35;2.60;;;;;;;;;;6271475;28;20032;-78
2022/05/27 03:00:31;;;;;;;4.55;1.70;;;;;;;;;;6273006;28;20496;-78
2022/05/27 03:03:32;;;;;;;2.13;1.50;;;;;;;;;;6269688;28;20029;-78
2022/05/27 03:06:38;;;;;;;2.80;1.60;;;;;;;;;;6272471;28;20021;-78
2022/05/27 03:09:47;;;;;;;15.20;3.78;;;;;;;;;;6274106;28;20090;-78
2022/05/27 03:12:50;;;;;;;5.22;2.50;;;;;;;;;;6269111;28;20037;-78
2022/05/27 03:15:59;;;;;;;3.53;2.35;;;;;;;;;;6275626;28;20021;-79
2022/05/27 03:19:06;;;;;;;7.47;2.63;;;;;;;;;;6269575;28;20045;-79
2022/05/27 03:22:09;;;;;;;4.93;2.75;;;;;;;;;;6276208;28;20032;-79
2022/05/27 03:25:27;;;;;;;6.38;2.42;;;;;;;;;;6273353;28;20488;-79
2022/05/27 03:28:28;;;;;;;6.10;2.90;;;;;;;;;;6272967;28;20122;-81
2022/05/27 03:31:32;;;;;;;6.27;2.27;;;;;;;;;;6274058;28;20473;-79
2022/05/27 03:34:37;;;;;;;7.55;2.90;;;;;;;;;;6272632;28;20840;-78
2022/05/27 03:37:48;;;;;;;6.82;2.50;;;;;;;;;;6274212;28;20485;-78
2022/05/27 03:40:53;;;;;;;6.63;2.93;;;;;;;;;;6272446;28;20017;-78
2022/05/27 03:43:53;;;;;;;6.60;3.95;;;;;;;;;;6270481;28;20400;-78
2022/05/27 03:46:55;;;;;;;7.47;2.53;;;;;;;;;;6271508;28;20025;-78
2022/05/27 03:49:55;;;;;;;5.78;2.83;;;;;;;;;;6272253;28;20025;-78
2022/05/27 03:52:55;;;;;;;17.15;3.95;;;;;;;;;;6271739;28;20404;-78
2022/05/27 03:55:55;;;;;;;5.70;2.60;;;;;;;;;;6272786;28;20021;-77
2022/05/27 03:58:56;;;;;;;13.47;3.60;;;;;;;;;;6272813;28;20013;-77
2022/05/27 04:01:56;;;;;;;9.33;2.90;;;;;;;;;;6282788;28;20021;-78
2022/05/27 04:04:58;;;;;;;7.38;2.70;;;;;;;;;;6292090;28;20278;-78
2022/05/27 04:07:58;;;;;;;5.10;2.85;;;;;;;;;;6290523;28;20009;-79
2022/05/27 04:10:59;;;;;;;7.07;2.50;;;;;;;;;;6284952;28;20380;-78
2022/05/27 04:13:59;;;;;;;6.97;2.97;;;;;;;;;;6282923;28;20043;-78
2022/05/27 04:20:19;;;;;;;8.40;3.17;;;;;;;;;;6276404;28;20540;-76
2022/05/27 04:23:19;;;;;;;5.20;2.23;;;;;;;;;;6266114;28;20071;-78
2022/05/27 04:26:20;;;;;;;6.93;3.27;;;;;;;;;;6271579;28;20017;-78
2022/05/27 04:29:20;;;;;;;4.15;2.20;;;;;;;;;;6272393;28;20021;-78
2022/05/27 04:32:27;;;;;;;4.73;2.10;;;;;;;;;;6271521;28;20062;-78
2022/05/27 04:35:27;;;;;;;6.50;2.40;;;;;;;;;;6273150;28;20024;-78
2022/05/27 04:38:28;;;;;;;5.57;2.23;;;;;;;;;;6272033;28;20111;-78
2022/05/27 04:41:28;;;;;;;2.80;2.00;;;;;;;;;;6272424;28;20029;-78
2022/05/27 04:44:28;;;;;;;4.50;2.13;;;;;;;;;;6268478;28;20381;-78
2022/05/27 04:47:28;;;;;;;9.10;2.20;;;;;;;;;;6253478;28;20040;-78
2022/05/27 04:50:29;;;;;;;7.18;2.33;;;;;;;;;;6253980;28;20026;-78
2022/05/27 04:53:29;;;;;;;4.10;2.03;;;;;;;;;;6262418;28;20017;-78
2022/05/27 04:56:30;;;;;;;9.43;2.60;;;;;;;;;;6266671;28;20481;-79
2022/05/27 04:59:31;;;;;;;5.07;2.03;;;;;;;;;;6263471;28;20021;-78
2022/05/27 05:02:31;;;;;;;3.45;2.28;;;;;;;;;;6264202;28;20092;-78
2022/05/27 05:05:33;;;;;;;7.70;2.20;;;;;;;;;;6279021;28;20078;-78
2022/05/27 05:08:36;;;;;;;6.05;2.38;;;;;;;;;;6276059;28;20029;-78
2022/05/27 05:11:36;;;;;;;6.00;2.25;;;;;;;;;;6272072;28;20040;-78
2022/05/27 05:14:36;;;;;;;5.73;2.33;;;;;;;;;;6277816;28;20066;-78
2022/05/27 05:17:37;;;;;;;8.37;2.33;;;;;;;;;;6277506;28;20052;-78
2022/05/27 05:20:37;;;;;;;6.88;2.45;;;;;;;;;;6276486;28;20106;-78
2022/05/27 05:23:37;;;;;;;3.87;1.77;;;;;;;;;;6276868;28;20021;-78
2022/05/27 05:26:38;;;;;;;6.97;2.77;;;;;;;;;;6274329;28;20383;-79
2022/05/27 05:29:38;;;;;;;6.47;2.60;;;;;;;;;;6274855;28;20108;-78
2022/05/27 05:32:39;;;;;;;4.53;1.90;;;;;;;;;;6275698;28;20021;-78
2022/05/27 05:35:39;;;;;;;5.33;2.73;;;;;;;;;;6269174;28;20579;-78
2022/05/27 05:38:39;;;;;;;4.33;2.50;;;;;;;;;;6276526;28;20415;-79
2022/05/27 05:41:40;;;;;;;5.27;1.97;;;;;;;;;;6276185;28;20060;-78
2022/05/27 05:44:40;;;;;;;6.40;1.70;;;;;;;;;;6272407;28;20168;-78
2022/05/27 05:47:40;;;;;;;9.20;5.25;;;;;;;;;;6278574;28;20033;-78
2022/05/27 05:50:41;;;;;;;3.43;1.70;;;;;;;;;;6263666;28;20017;-78
2022/05/27 05:53:41;;;;;;;13.40;2.57;;;;;;;;;;6263409;28;20170;-78
2022/05/27 05:56:41;;;;;;;5.37;2.20;;;;;;;;;;6263052;28;20013;-78
2022/05/27 05:59:42;;;;;;;3.40;2.13;;;;;;;;;;6262295;28;20525;-79
2022/05/27 06:02:42;;;;;;;4.13;1.93;;;;;;;;;;6262303;28;20032;-78
2022/05/27 06:05:42;;;;;;;3.03;1.70;;;;;;;;;;6259505;28;20032;-78
2022/05/27 06:08:43;;;;;;;4.07;2.73;;;;;;;;;;6271969;28;20054;-78
2022/05/27 06:11:43;;;;;;;3.67;2.00;;;;;;;;;;6266113;28;20115;-78
2022/05/27 06:14:43;;;;;;;6.87;1.77;;;;;;;;;;6262723;28;20025;-78
2022/05/27 06:17:43;;;;;;;3.90;2.47;;;;;;;;;;6273289;28;20094;-78
2022/05/27 06:20:44;;;;;;;4.73;2.50;;;;;;;;;;6266501;28;20040;-78
2022/05/27 06:23:44;;;;;;;5.23;2.00;;;;;;;;;;6257556;28;20021;-78
2022/05/27 06:26:45;;;;;;;4.03;1.67;;;;;;;;;;6273516;28;20408;-78
2022/05/27 06:36:23;;;;;;;5.28;2.53;;;;;;;;;;6263559;28;20021;-78
2022/05/27 06:39:23;;;;;;;6.40;2.33;;;;;;;;;;6263849;28;20075;-78
2022/05/27 06:42:24;;;;;;;9.70;2.87;;;;;;;;;;6258906;28;20025;-78
2022/05/27 06:45:24;;;;;;;9.23;2.43;;;;;;;;;;6255074;28;20450;-78
2022/05/27 06:48:25;;;;;;;4.70;2.23;;;;;;;;;;6266532;28;20017;-79
2022/05/27 06:51:25;;;;;;;4.23;1.67;;;;;;;;;;6267251;28;20022;-78
2022/05/27 06:54:25;;;;;;;5.93;2.33;;;;;;;;;;6268727;28;20040;-78
2022/05/27 06:57:26;;;;;;;6.27;2.27;;;;;;;;;;6258868;28;20385;-78
2022/05/27 07:00:26;;;;;;;8.43;2.33;;;;;;;;;;6265863;28;20428;-78
2022/05/27 07:03:26;;;;;;;4.40;1.67;;;;;;;;;;6267684;28;20051;-78
2022/05/27 07:06:29;;;;;;;4.57;2.03;;;;;;;;;;6266075;28;20032;-78
2022/05/27 07:09:30;;;;;;;3.70;1.83;;;;;;;;;;6273695;28;20036;-78
2022/05/27 07:12:30;;;;;;;5.95;2.83;;;;;;;;;;6266859;28;20028;-78
2022/05/27 07:15:30;;;;;;;7.90;2.30;;;;;;;;;;6272770;28;20120;-78
2022/05/27 07:18:31;;;;;;;8.47;2.20;;;;;;;;;;6272951;28;20080;-78
2022/05/27 07:21:35;;;;;;;7.17;2.53;;;;;;;;;;6267029;28;20497;-78
2022/05/27 07:24:36;;;;;;;3.15;1.67;;;;;;;;;;6255719;28;20029;-78
2022/05/27 07:27:36;;;;;;;6.30;2.20;;;;;;;;;;6266772;28;20036;-78
2022/05/27 07:30:36;;;;;;;7.30;2.80;;;;;;;;;;6261403;28;20025;-78
2022/05/27 07:33:37;;;;;;;4.33;1.77;;;;;;;;;;6257245;28;20018;-78
2022/05/27 07:36:37;;;;;;;4.67;1.57;;;;;;;;;;6264553;28;20036;-77
2022/05/27 07:39:38;;;;;;;3.87;1.30;;;;;;;;;;6258510;28;20047;-77
2022/05/27 07:42:38;;;;;;;4.40;1.73;;;;;;;;;;6258571;28;20437;-78
2022/05/27 07:45:40;;;;;;;2.00;1.57;;;;;;;;;;6256660;28;20086;-77
2022/05/27 07:48:41;;;;;;;2.78;1.25;;;;;;;;;;6267128;28;20036;-77
2022/05/27 07:51:41;;;;;;;2.93;1.43;;;;;;;;;;6256501;28;20021;-78
2022/05/27 07:54:41;;;;;;;5.40;1.50;;;;;;;;;;6264770;28;20083;-78
2022/05/27 07:57:46;;;;;;;2.07;1.27;;;;;;;;;;6255205;28;20051;-78
2022/05/27 08:00:46;;;;;;;2.33;1.20;;;;;;;;;;6265989;28;20025;-78
2022/05/27 08:03:46;;;;;;;4.50;1.43;;;;;;;;;;6271760;28;20384;-78
2022/05/27 08:06:47;;;;;;;3.50;1.50;;;;;;;;;;6268425;28;20033;-78
2022/05/27 08:09:47;;;;;;;4.43;1.40;;;;;;;;;;6270738;28;20154;-78
2022/05/27 08:12:47;;;;;;;3.53;1.70;;;;;;;;;;6266548;28;20359;-77
2022/05/27 08:15:48;;;;;;;3.33;1.80;;;;;;;;;;6268254;28;20040;-78
2022/05/27 08:18:48;;;;;;;4.13;1.83;;;;;;;;;;6270675;28;20440;-78
2022/05/27 08:21:48;;;;;;;6.53;1.67;;;;;;;;;;6272295;28;20427;-78
2022/05/27 08:24:48;;;;;;;5.97;1.50;;;;;;;;;;6265136;28;20052;-79
2022/05/27 08:27:49;;;;;;;4.60;1.60;;;;;;;;;;6271331;28;20717;-78
2022/05/27 08:30:49;;;;;;;2.13;1.30;;;;;;;;;;6270983;28;20036;-78
2022/05/27 08:40:27;;;;;;;4.13;1.30;;;;;;;;;;6271848;28;20024;-77
2022/05/27 08:43:53;;;;;;;9.03;1.93;;;;;;;;;;6272760;28;20036;-79
2022/05/27 08:46:53;;;;;;;3.67;1.20;;;;;;;;;;6281848;28;20109;-78
2022/05/27 08:50:16;;;;;;;6.57;1.80;;;;;;;;;;6269210;28;20029;-78
2022/05/27 08:53:23;;;;;;;3.85;1.27;;;;;;;;;;6260204;28;20049;-79
2022/05/27 09:00:04;;;;;;;4.75;1.05;;;;;;;;;;6272277;28;20460;-78
2022/05/27 09:03:07;;;;;;;3.42;1.27;;;;;;;;;;6271091;28;20464;-79
2022/05/27 09:06:08;;;;;;;3.42;1.40;;;;;;;;;;6270456;28;20013;-78
2022/05/27 09:09:14;;;;;;;3.78;1.23;;;;;;;;;;6273350;28;20036;-78
2022/05/27 09:12:25;;;;;;;2.53;1.50;;;;;;;;;;6273423;28;20477;-79
2022/05/27 09:15:32;;;;;;;7.05;2.03;;;;;;;;;;6266846;28;20439;-78
2022/05/27 09:18:51;;;;;;;4.90;1.65;;;;;;;;;;6269485;28;20077;-78
2022/05/27 09:22:01;;;;;;;9.57;2.40;;;;;;;;;;6271014;28;20361;-80
2022/05/27 09:25:11;;;;;;;2.65;1.60;;;;;;;;;;6267063;28;20022;-78
2022/05/27 09:28:14;;;;;;;8.23;1.65;;;;;;;;;;6271723;28;20029;-78
2022/05/27 09:31:18;;;;;;;4.20;1.00;;;;;;;;;;6270277;28;20071;-78
2022/05/27 09:34:19;;;;;;;2.95;0.80;;;;;;;;;;6270711;28;20032;-79
2022/05/27 09:37:25;;;;;;;4.20;1.23;;;;;;;;;;6271641;28;20048;-77
2022/05/27 09:40:30;;;;;;;1.48;1.00;;;;;;;;;;6274672;28;20206;-78
2022/05/27 09:43:45;;;;;;;1.35;1.00;;;;;;;;;;6274677;28;20024;-77
2022/05/27 09:46:46;;;;;;;1.27;1.17;;;;;;;;;;6277861;28;20031;-77
2022/05/27 09:49:51;;;;;;;3.83;1.27;;;;;;;;;;6277526;28;20025;-77
2022/05/27 09:52:54;;;;;;;3.05;1.52;;;;;;;;;;6276777;28;20024;-78
2022/05/27 09:56:05;;;;;;;3.65;1.40;;;;;;;;;;6273826;28;20648;-78
2022/05/27 09:59:26;;;;;;;5.40;2.13;;;;;;;;;;6266901;28;20025;-77
2022/05/27 10:02:28;;;;;;;5.07;1.60;;;;;;;;;;6263319;28;20033;-77
2022/05/27 10:05:30;;;;;;;1.45;1.35;;;;;;;;;;6274955;28;20025;-78
2022/05/27 10:08:33;;;;;;;4.22;1.67;;;;;;;;;;6273560;28;20029;-78
2022/05/27 10:11:34;;;;;;;3.03;1.55;;;;;;;;;;6275582;28;20025;-77
2022/05/27 10:14:34;;;;;;;6.45;2.35;;;;;;;;;;6274934;28;20502;-77
2022/05/27 10:17:38;;;;;;;7.77;2.80;;;;;;;;;;6274056;28;20017;-77
2022/05/27 10:20:38;;;;;;;2.10;1.27;;;;;;;;;;6275265;28;20045;-77
2022/05/27 10:23:40;;;;;;;2.50;1.57;;;;;;;;;;6275038;28;20025;-78
2022/05/27 10:26:41;;;;;;;6.22;1.73;;;;;;;;;;6272723;28;20032;-78
2022/05/27 10:29:55;;;;;;;3.23;1.40;;;;;;;;;;6275054;28;20033;-77
2022/05/27 10:32:58;;;;;;;7.88;2.17;;;;;;;;;;6273869;28;20033;-78
2022/05/27 10:35:58;;;;;;;3.33;1.85;;;;;;;;;;6273821;28;20025;-77
2022/05/27 10:39:03;;;;;;;4.03;1.17;;;;;;;;;;6275175;28;20131;-77
2022/05/27 10:42:26;;;;;;;3.65;1.75;;;;;;;;;;6275118;28;20028;-78
2022/05/27 10:45:34;;;;;;;10.98;2.03;;;;;;;;;;6275361;28;20033;-77
2022/05/27 10:48:41;;;;;;;5.57;1.60;;;;;;;;;;6273758;28;20025;-77
2022/05/27 10:51:44;;;;;;;6.18;1.48;;;;;;;;;;6271053;28;20085;-77
2022/05/27 10:55:03;;;;;;;2.25;1.35;;;;;;;;;;6262679;28;20032;-77
2022/05/27 11:05:20;;;;;;;3.55;1.67;;;;;;;;;;6261604;28;20052;-78
2022/05/27 11:08:27;;;;;;;3.88;1.98;;;;;;;;;;6255414;28;20070;-79
2022/05/27 11:11:39;;;;;;;7.95;2.50;;;;;;;;;;6269125;28;20143;-78
2022/05/27 11:18:05;;;;;;;6.63;1.88;;;;;;;;;;6258603;28;20025;-77
2022/05/27 11:21:11;;;;;;;2.67;1.67;;;;;;;;;;6279933;28;20025;-78
2022/05/27 11:24:11;;;;;;;2.78;1.70;;;;;;;;;;6262012;28;20051;-77
2022/05/27 11:27:18;;;;;;;6.77;2.23;;;;;;;;;;6268365;28;20017;-77
2022/05/27 11:30:18;;;;;;;5.90;2.92;;;;;;;;;;6263392;28;20092;-79
2022/05/27 11:33:36;;;;;;;10.03;4.47;;;;;;;;;;6271204;28;20027;-81
2022/05/27 11:36:40;;;;;;;5.43;3.00;;;;;;;;;;6261645;28;20010;-79
2022/05/27 11:39:47;;;;;;;9.52;4.43;;;;;;;;;;6274025;28;20381;-81
2022/05/27 11:42:57;;;;;;;10.60;3.88;;;;;;;;;;6278022;28;20534;-82
2022/05/27 11:46:13;;;;;;;6.20;4.10;;;;;;;;;;6276914;28;20013;-81
2022/05/27 11:49:26;;;;;;;8.82;3.63;;;;;;;;;;6264748;28;20044;-80
2022/05/27 11:52:39;;;;;;;12.30;4.18;;;;;;;;;;6276446;28;20055;-81
2022/05/27 11:55:46;;;;;;;3.60;1.90;;;;;;;;;;6275279;28;20067;-79
2022/05/27 11:58:47;;;;;;;3.47;1.80;;;;;;;;;;6274814;28;20024;-80
2022/05/27 12:01:55;;;;;;;1.80;1.40;;;;;;;;;;6273462;28;20056;-80
2022/05/27 12:04:57;;;;;;;2.05;1.35;;;;;;;;;;6273307;28;20164;-79
2022/05/27 12:08:02;;;;;;;3.20;1.75;;;;;;;;;;6269128;28;20020;-80
2022/05/27 12:11:24;;;;;;;3.45;1.88;;;;;;;;;;6258458;28;20099;-82
2022/05/27 12:14:26;;;;;;;10.18;4.60;;;;;;;;;;6257554;28;20120;-80
2022/05/27 12:17:37;;;;;;;6.57;4.20;;;;;;;;;;6271387;28;20033;-78
2022/05/27 12:20:38;;;;;;;10.27;5.97;;;;;;;;;;6270438;28;20057;-79
2022/05/27 12:23:40;;;;;;;14.32;6.45;;;;;;;;;;6263947;28;20025;-81
2022/05/27 12:26:40;;;;;;;12.98;8.00;;;;;;;;;;6269891;28;20163;-83
2022/05/27 12:29:42;;;;;;;13.63;8.02;;;;;;;;;;6278749;28;20029;-83
2022/05/27 12:32:42;;;;;;;;;;;;;;;;;;6276824;28;20457;-84
2022/05/27 12:35:49;;;;;;;15.60;9.32;;;;;;;;;;6280860;28;19928;-84
2022/05/27 12:38:52;;;;;;;16.23;8.80;;;;;;;;;;6282585;28;20044;-83
2022/05/27 12:42:06;;;;;;;17.77;9.27;;;;;;;;;;6290809;28;20026;-84
2022/05/27 12:45:21;;;;;;;15.38;8.02;;;;;;;;;;6283250;28;20024;-84
2022/05/27 12:48:42;;;;;;;13.13;7.53;;;;;;;;;;6287016;28;20024;-83
2022/05/27 12:51:45;;;;;;;11.85;5.72;;;;;;;;;;6287141;28;20029;-83
2022/05/27 12:54:46;;;;;;;11.07;5.03;;;;;;;;;;6280213;28;20374;-83
2022/05/27 13:01:20;;;;;;;10.48;5.30;;;;;;;;;;6282535;28;20021;-84
2022/05/27 13:04:39;;;;;;;9.25;6.00;;;;;;;;;;6278000;28;20075;-83
2022/05/27 13:07:40;;;;;;;9.77;5.55;;;;;;;;;;6279447;28;20071;-84
2022/05/27 13:10:45;;;;;;;7.47;4.87;;;;;;;;;;6287565;28;20037;-84
2022/05/27 13:13:47;;;;;;;7.70;5.13;;;;;;;;;;6293193;28;20317;-83
2022/05/27 13:16:51;;;;;;;6.50;4.22;;;;;;;;;;6281648;28;20032;-83
2022/05/27 13:19:57;;;;;;;8.18;4.57;;;;;;;;;;6292916;28;20025;-84
2022/05/27 13:22:59;;;;;;;9.98;4.90;;;;;;;;;;6298813;28;20017;-84
2022/05/27 13:26:10;;;;;;;8.77;4.22;;;;;;;;;;6301924;28;20075;-83
2022/05/27 13:29:35;;;;;;;7.93;4.25;;;;;;;;;;6305364;28;20052;-83
2022/05/27 13:32:53;;;;;;;10.70;4.93;;;;;;;;;;6304080;28;20048;-84
2022/05/27 13:35:56;;;;;;;15.10;7.28;;;;;;;;;;6300108;28;20029;-83
2022/05/27 13:39:01;;;;;;;13.50;8.20;;;;;;;;;;6296128;28;20021;-84
2022/05/27 13:42:02;;;;;;;10.55;6.00;;;;;;;;;;6293763;28;20021;-84
2022/05/27 13:45:11;;;;;;;8.75;5.53;;;;;;;;;;6288491;28;20062;-83
2022/05/27 13:48:14;;;;;;;10.80;6.45;;;;;;;;;;6282788;28;20701;-85
2022/05/27 13:51:19;;;;;;;11.02;6.05;;;;;;;;;;6282990;28;20032;-84
2022/05/27 13:54:34;;;;;;;13.85;7.80;;;;;;;;;;6291193;28;20032;-84
2022/05/27 13:57:35;;;;;;;10.15;5.22;;;;;;;;;;6300197;28;20035;-85
2022/05/27 14:00:41;;;;;;;11.80;7.15;;;;;;;;;;6300297;28;20071;-84
2022/05/27 14:03:47;;;;;;;12.50;8.70;;;;;;;;;;6293004;28;20041;-84
2022/05/27 14:06:47;;;;;;;10.00;6.63;;;;;;;;;;6285021;28;20021;-84
2022/05/27 14:09:50;;;;;;;13.00;8.40;;;;;;;;;;6295434;28;20081;-84
2022/05/27 14:12:51;;;;;;;15.52;10.27;;;;;;;;;;6289219;28;20012;-84
2022/05/27 14:15:51;;;;;;;14.95;6.75;;;;;;;;;;6285220;28;20384;-84
2022/05/27 14:18:52;;;;;;;10.25;5.70;;;;;;;;;;6273826;28;20037;-84
2022/05/27 14:25:41;;;;;;;15.65;7.25;;;;;;;;;;6287685;28;20033;-84
2022/05/27 14:28:44;;;;;;;27.77;16.77;;;;;;;;;;6296051;28;20060;-84
2022/05/27 14:31:44;;;;;;;14.10;5.82;;;;;;;;;;6283734;28;20032;-84
2022/05/27 14:34:47;;;;;;;6.00;4.18;;;;;;;;;;6275866;28;20017;-83
2022/05/27 14:37:51;;;;;;;6.32;4.32;;;;;;;;;;6279618;28;20023;-83
2022/05/27 14:40:52;;;;;;;5.00;3.55;;;;;;;;;;6279734;28;20017;-83
2022/05/27 14:43:53;;;;;;;9.52;4.80;;;;;;;;;;6280434;28;20044;-83
2022/05/27 14:47:05;;;;;;;6.03;3.30;;;;;;;;;;6280878;28;20021;-83
2022/05/27 14:50:11;;;;;;;7.65;4.25;;;;;;;;;;6272182;28;20287;-83
2022/05/27 14:53:14;;;;;;;9.48;5.93;;;;;;;;;;6280595;28;20542;-82
2022/05/27 14:56:21;;;;;;;10.13;6.60;;;;;;;;;;6282947;28;20021;-83
2022/05/27 14:59:27;;;;;;;9.70;6.15;;;;;;;;;;6281716;28;20033;-83
2022/05/27 15:02:29;;;;;;;13.80;6.82;;;;;;;;;;6280093;28;20067;-83
2022/05/27 15:05:29;;;;;;;;;;;;;;;;;;6270326;28;20048;-84
2022/05/27 15:08:32;;;;;;;12.15;7.13;;;;;;;;;;6281988;28;19905;-84
2022/05/27 15:11:32;;;;;;;15.88;7.38;;;;;;;;;;6269849;28;20484;-83
2022/05/27 15:14:48;;;;;;;11.93;6.53;;;;;;;;;;6280045;28;20190;-83
2022/05/27 15:17:55;;;;;;;13.50;6.93;;;;;;;;;;6289456;28;20077;-83
2022/05/27 15:20:56;;;;;;;12.30;7.88;;;;;;;;;;6289097;28;20132;-83
2022/05/27 15:24:21;;;;;;;17.30;8.27;;;;;;;;;;6268572;28;20018;-82
2022/05/27 15:34:13;;;;;;;16.45;10.27;;;;;;;;;;6273124;28;20030;-83
2022/05/27 15:37:15;;;;;;;13.30;7.70;;;;;;;;;;6289337;28;20079;-84
2022/05/27 15:40:15;;;;;;;19.92;11.95;;;;;;;;;;6275508;28;20040;-84
2022/05/27 15:43:17;;;;;;;22.90;13.98;;;;;;;;;;6274572;28;20001;-84
2022/05/27 15:46:19;;;;;;;25.27;15.95;;;;;;;;;;6278171;28;20043;-84
2022/05/27 15:49:19;;;;;;;28.08;15.88;;;;;;;;;;6271235;28;20511;-83
2022/05/27 15:52:19;;;;;;;27.73;16.90;;;;;;;;;;6273161;28;20028;-84
2022/05/27 15:55:20;;;;;;;24.63;11.98;;;;;;;;;;6275226;28;20025;-84
2022/05/27 15:58:20;;;;;;;31.03;18.87;;;;;;;;;;6298308;28;20123;-83
2022/05/27 16:01:21;;;;;;;32.45;20.48;;;;;;;;;;6279437;28;20382;-83
2022/05/27 16:04:21;;;;;;;19.70;13.15;;;;;;;;;;6279403;28;20021;-83
2022/05/27 16:07:23;;;;;;;31.73;20.25;;;;;;;;;;6275734;28;20104;-83
2022/05/27 16:10:30;;;;;;;33.55;19.13;;;;;;;;;;6272949;28;20013;-83
2022/05/27 16:13:31;;;;;;;30.35;17.88;;;;;;;;;;6265269;28;20392;-81
2022/05/27 16:19:50;;;;;;;22.08;12.93;;;;;;;;;;6280208;28;20048;-81
2022/05/27 16:22:51;;;;;;;20.13;13.27;;;;;;;;;;6266936;28;20079;-81
2022/05/27 16:25:51;;;;;;;20.25;11.60;;;;;;;;;;6269257;28;20397;-82
2022/05/27 16:28:52;;;;;;;17.00;8.90;;;;;;;;;;6268618;28;20021;-84
2022/05/27 16:31:52;;;;;;;15.25;8.68;;;;;;;;;;6269372;28;20373;-83
2022/05/27 16:34:53;;;;;;;16.03;9.07;;;;;;;;;;6271264;28;20382;-83
2022/05/27 16:37:57;;;;;;;18.40;9.27;;;;;;;;;;6264093;28;20331;-83
2022/05/27 16:40:57;;;;;;;15.27;8.20;;;;;;;;;;6287436;28;20355;-83
2022/05/27 16:43:58;;;;;;;20.55;9.13;;;;;;;;;;6276000;28;20025;-83
2022/05/27 16:46:59;;;;;;;14.82;8.68;;;;;;;;;;6282899;28;20025;-83
2022/05/27 16:50:00;;;;;;;19.23;10.68;;;;;;;;;;6283561;28;20028;-83
2022/05/27 16:53:00;;;;;;;16.70;9.57;;;;;;;;;;6284886;28;20036;-83
2022/05/27 16:56:01;;;;;;;17.40;8.35;;;;;;;;;;6277774;28;20017;-84
2022/05/27 16:59:01;;;;;;;14.52;8.68;;;;;;;;;;6286265;28;20021;-84
2022/05/27 17:02:02;;;;;;;15.57;9.15;;;;;;;;;;6289942;28;20013;-83
2022/05/27 17:05:02;;;;;;;15.13;9.05;;;;;;;;;;6295933;28;20051;-83
2022/05/27 17:08:03;;;;;;;14.73;8.50;;;;;;;;;;6292386;28;20663;-83
2022/05/27 17:11:03;;;;;;;14.13;9.68;;;;;;;;;;6289440;28;20035;-82
2022/05/27 17:14:04;;;;;;;13.23;8.75;;;;;;;;;;6284143;28;20032;-82
2022/05/27 17:17:04;;;;;;;14.73;10.30;;;;;;;;;;6280925;28;20029;-82
2022/05/27 17:20:05;;;;;;;16.63;11.43;;;;;;;;;;6281357;28;20148;-80
2022/05/27 17:23:05;;;;;;;35.55;13.85;;;;;;;;;;6282107;28;20021;-80
2022/05/27 17:26:05;;;;;;;22.00;12.70;;;;;;;;;;6279942;28;20021;-82
2022/05/27 17:29:06;;;;;;;21.42;12.63;;;;;;;;;;6280934;28;20305;-81
2022/05/27 17:32:06;;;;;;;21.70;13.33;;;;;;;;;;6283222;28;20032;-82
2022/05/27 17:35:08;;;;;;;20.70;13.10;;;;;;;;;;6283196;28;20256;-82
2022/05/27 17:38:08;;;;;;;24.15;14.25;;;;;;;;;;6276822;28;20028;-83
2022/05/27 17:41:09;;;;;;;22.50;13.10;;;;;;;;;;6282395;28;20017;-82
2022/05/27 17:44:09;;;;;;;19.13;11.27;;;;;;;;;;6272626;28;20037;-82
2022/05/27 17:53:49;;;;;;;21.63;14.88;;;;;;;;;;6280777;28;20021;-82
2022/05/27 17:56:49;;;;;;;16.85;9.85;;;;;;;;;;6280223;28;20027;-82
2022/05/27 17:59:50;;;;;;;18.50;12.10;;;;;;;;;;6276288;28;20025;-82
2022/05/27 18:02:51;;;;;;;19.40;12.50;;;;;;;;;;6277431;28;20306;-82
2022/05/27 18:05:51;;;;;;;17.45;10.77;;;;;;;;;;6281588;28;20694;-83
2022/05/27 18:08:52;;;;;;;21.77;11.30;;;;;;;;;;6280470;28;20047;-82
2022/05/27 18:11:55;;;;;;;23.38;13.35;;;;;;;;;;6280706;28;20299;-82
2022/05/27 18:14:58;;;;;;;19.05;12.43;;;;;;;;;;6279926;28;20384;-82
2022/05/27 18:17:58;;;;;;;25.08;14.00;;;;;;;;;;6273172;28;20109;-82
2022/05/27 18:20:58;;;;;;;23.25;14.73;;;;;;;;;;6279502;28;20037;-82
2022/05/27 18:23:59;;;;;;;21.85;12.73;;;;;;;;;;6279953;28;20103;-82
2022/05/27 18:27:00;;;;;;;22.85;15.30;;;;;;;;;;6259810;28;20037;-82
2022/05/27 18:30:00;;;;;;;25.35;15.95;;;;;;;;;;6281197;28;20031;-83
2022/05/27 18:33:00;;;;;;;26.38;16.77;;;;;;;;;;6279776;28;20086;-82
2022/05/27 18:36:01;;;;;;;35.85;19.75;;;;;;;;;;6279668;28;20017;-82
2022/05/27 18:39:01;;;;;;;27.55;15.55;;;;;;;;;;6272591;28;20040;-83
2022/05/27 18:42:02;;;;;;;30.40;18.27;;;;;;;;;;6274999;28;20013;-81
2022/05/27 18:45:04;;;;;;;22.70;16.42;;;;;;;;;;6271384;28;20037;-80
2022/05/27 18:48:05;;;;;;;25.35;16.88;;;;;;;;;;6278180;28;20033;-81
2022/05/27 18:51:05;;;;;;;21.55;13.48;;;;;;;;;;6278834;28;20029;-82
2022/05/27 18:54:06;;;;;;;17.50;11.63;;;;;;;;;;6287632;28;20013;-82
2022/05/27 18:57:06;;;;;;;21.08;12.80;;;;;;;;;;6277073;28;20111;-81
2022/05/27 19:00:07;;;;;;;21.02;11.93;;;;;;;;;;6281641;28;20017;-81
2022/05/27 19:03:08;;;;;;;16.27;10.52;;;;;;;;;;6282335;28;20017;-81
2022/05/27 19:06:08;;;;;;;18.25;11.00;;;;;;;;;;6281971;28;20535;-81
2022/05/27 19:09:09;;;;;;;18.08;11.32;;;;;;;;;;6279032;28;20025;-81
2022/05/27 19:12:10;;;;;;;19.58;11.30;;;;;;;;;;6276626;28;20036;-81